Time;durP1;ratioP1;P1;durP2;ratioP2;P2;SDS_P1;SDS_P2;PMS_P1;PMS_P2;Temp;Humidity;BMP_temperature;BMP_pressure;BME280_temperature;BME280_humidity;BME280_pressure;Samples;Min_cycle;Max_cycle;Signal;HPM_P1;HPM_P2
2024/01/17 00:00:35;;;;;;;16.17;12.37;;;-3.90;5.90;;;;;;4973675;28;20210;-68
2024/01/17 00:03:01;;;;;;;15.93;12.10;;;-3.90;7.50;;;;;;4973381;28;20436;-67
2024/01/17 00:05:27;;;;;;;22.58;12.45;;;-3.80;7.30;;;;;;4973303;28;20244;-67
2024/01/17 00:07:53;;;;;;;25.23;13.40;;;-3.90;7.50;;;;;;4973536;28;20198;-67
2024/01/17 00:10:18;;;;;;;13.83;10.60;;;-3.80;7.40;;;;;;4973566;28;20571;-67
2024/01/17 00:12:44;;;;;;;17.10;11.47;;;-3.80;7.30;;;;;;4973109;28;20176;-69
2024/01/17 00:15:10;;;;;;;20.87;11.00;;;-3.80;7.20;;;;;;4972176;28;20257;-69
2024/01/17 00:17:35;;;;;;;21.47;12.30;;;-3.80;6.50;;;;;;4973269;28;20207;-67
2024/01/17 00:20:01;;;;;;;17.63;11.50;;;-3.90;5.90;;;;;;4973284;28;20315;-68
2024/01/17 00:22:27;;;;;;;20.83;13.50;;;-4.00;7.60;;;;;;4973356;28;20199;-67
2024/01/17 00:24:53;;;;;;;16.13;12.33;;;-4.00;7.80;;;;;;4973206;28;20676;-68
2024/01/17 00:27:23;;;;;;;20.65;13.07;;;-4.00;8.20;;;;;;4971926;28;20421;-68
2024/01/17 00:29:48;;;;;;;16.50;12.10;;;-3.90;8.80;;;;;;4973005;28;20190;-68
2024/01/17 00:32:15;;;;;;;22.90;13.30;;;-3.90;8.70;;;;;;4971766;28;20622;-68
2024/01/17 00:34:41;;;;;;;17.08;12.18;;;-3.80;7.80;;;;;;4973096;28;20257;-69
2024/01/17 00:37:08;;;;;;;17.70;11.93;;;-3.70;7.40;;;;;;4973088;28;20280;-69
2024/01/17 00:39:34;;;;;;;18.15;10.95;;;-3.70;7.30;;;;;;4973023;28;20571;-69
2024/01/17 00:42:00;;;;;;;14.50;11.70;;;-3.60;6.60;;;;;;4972920;28;20176;-67
2024/01/17 00:44:27;;;;;;;17.90;12.70;;;-3.50;6.20;;;;;;4972728;28;20480;-68
2024/01/17 00:46:52;;;;;;;15.18;12.40;;;-3.40;6.10;;;;;;4972735;28;20536;-69
2024/01/17 00:49:18;;;;;;;16.17;10.60;;;-3.40;5.50;;;;;;4972873;28;20185;-68
2024/01/17 00:51:43;;;;;;;13.43;9.90;;;-3.30;5.70;;;;;;4973021;28;20177;-69
2024/01/17 00:54:10;;;;;;;16.13;11.97;;;-3.30;5.60;;;;;;4972970;28;20175;-68
2024/01/17 00:56:36;;;;;;;18.08;11.80;;;-3.30;5.60;;;;;;4973669;28;20626;-68
2024/01/17 00:59:02;;;;;;;18.30;12.17;;;-3.20;5.10;;;;;;4973036;28;20209;-69
2024/01/17 01:01:28;;;;;;;19.38;12.02;;;-3.10;5.20;;;;;;4973583;28;20661;-68
2024/01/17 01:03:54;;;;;;;15.57;11.20;;;-2.90;4.80;;;;;;4973083;28;20181;-69
2024/01/17 01:06:19;;;;;;;15.60;11.00;;;-2.90;4.00;;;;;;4972931;28;20205;-67
2024/01/17 01:08:45;;;;;;;18.67;12.17;;;-2.90;4.00;;;;;;4972814;28;20184;-68
2024/01/17 01:11:11;;;;;;;16.10;11.87;;;-2.80;3.40;;;;;;4972514;28;20212;-67
2024/01/17 01:13:37;;;;;;;19.67;12.30;;;-2.80;3.60;;;;;;4971413;28;20188;-67
2024/01/17 01:16:03;;;;;;;19.13;11.53;;;-2.70;2.30;;;;;;4972617;28;20182;-67
2024/01/17 01:18:29;;;;;;;18.35;11.63;;;-2.80;2.30;;;;;;4972283;28;20208;-68
2024/01/17 01:20:55;;;;;;;21.30;12.35;;;-2.70;2.30;;;;;;4972491;28;20196;-68
2024/01/17 01:23:24;;;;;;;19.97;11.80;;;-2.60;2.40;;;;;;4970705;28;20257;-70
2024/01/17 01:25:50;;;;;;;13.10;10.63;;;-2.50;1.20;;;;;;4972353;28;20821;-68
2024/01/17 01:28:16;;;;;;;13.10;10.30;;;-2.60;1.10;;;;;;4972590;28;20662;-68
2024/01/17 01:30:42;;;;;;;17.53;11.80;;;-2.70;1.00;;;;;;4970755;28;20208;-68
2024/01/17 01:33:07;;;;;;;25.40;13.23;;;-2.70;1.00;;;;;;4972151;28;20241;-68
2024/01/17 01:35:33;;;;;;;15.83;11.13;;;-2.70;1.10;;;;;;4972441;28;20188;-68
2024/01/17 01:37:59;;;;;;;21.53;12.00;;;-2.80;1.50;;;;;;4972256;28;20187;-68
2024/01/17 01:40:24;;;;;;;18.73;12.43;;;-2.70;1.80;;;;;;4970831;28;20267;-68
2024/01/17 01:42:50;;;;;;;13.73;9.53;;;-2.60;1.00;;;;;;4970831;28;20431;-68
2024/01/17 01:45:15;;;;;;;14.00;10.07;;;-2.60;1.50;;;;;;4972010;28;20285;-69
2024/01/17 01:47:42;;;;;;;17.97;11.57;;;-2.70;1.00;;;;;;4970979;28;20190;-68
2024/01/17 01:50:11;;;;;;;15.35;10.73;;;-2.60;1.00;;;;;;4972022;28;20245;-68
2024/01/17 01:52:39;;;;;;;19.20;11.88;;;-2.70;1.50;;;;;;4973796;28;20176;-68
2024/01/17 01:55:06;;;;;;;18.77;11.40;;;-2.50;1.70;;;;;;4975825;28;20187;-68
2024/01/17 01:57:36;;;;;;;18.08;12.48;;;-2.40;2.10;;;;;;4975795;28;20319;-68
2024/01/17 02:00:04;;;;;;;15.70;11.65;;;-2.40;2.50;;;;;;4975334;28;20229;-68
2024/01/17 02:02:32;;;;;;;18.75;11.65;;;-2.40;2.70;;;;;;4975746;28;20176;-68
2024/01/17 02:04:59;;;;;;;20.40;12.38;;;-2.40;4.00;;;;;;4975647;28;20230;-68
2024/01/17 02:07:27;;;;;;;17.83;11.95;;;-2.50;4.80;;;;;;4975533;28;20235;-68
2024/01/17 02:09:53;;;;;;;17.25;11.60;;;-2.40;6.40;;;;;;4976266;28;20286;-68
2024/01/17 02:12:19;;;;;;;17.92;13.32;;;-2.40;6.90;;;;;;4976379;28;20250;-67
2024/01/17 02:14:44;;;;;;;16.87;11.50;;;-2.40;8.00;;;;;;4975970;28;20614;-67
2024/01/17 02:17:10;;;;;;;18.57;11.63;;;-2.30;8.40;;;;;;4975956;28;20187;-66
2024/01/17 02:19:37;;;;;;;15.60;12.20;;;-2.30;8.40;;;;;;4975715;28;20195;-66
2024/01/17 02:22:03;;;;;;;15.23;11.27;;;-2.30;8.80;;;;;;4975770;28;20229;-67
2024/01/17 02:24:31;;;;;;;18.90;12.10;;;-2.40;11.20;;;;;;4975473;28;20211;-67
2024/01/17 02:26:59;;;;;;;21.83;13.27;;;-2.40;13.60;;;;;;4975679;28;20190;-67
2024/01/17 02:29:30;;;;;;;17.50;12.18;;;-2.40;15.80;;;;;;4975526;28;20189;-67
2024/01/17 02:31:56;;;;;;;15.98;12.20;;;-2.30;19.30;;;;;;4975358;28;20180;-67
2024/01/17 02:34:22;;;;;;;19.80;12.57;;;-2.10;21.30;;;;;;4975386;28;20263;-67
2024/01/17 02:36:47;;;;;;;18.17;12.67;;;-2.00;23.40;;;;;;4975352;28;20447;-67
2024/01/17 02:39:15;;;;;;;17.07;12.77;;;-1.80;25.80;;;;;;4974988;28;20231;-67
2024/01/17 02:41:43;;;;;;;20.52;12.95;;;-1.60;26.20;;;;;;4975024;28;20220;-67
2024/01/17 02:44:08;;;;;;;19.48;13.98;;;-1.50;27.10;;;;;;4973432;28;20188;-67
2024/01/17 02:46:34;;;;;;;15.80;11.37;;;-1.40;26.80;;;;;;4974684;28;20220;-67
2024/01/17 02:49:00;;;;;;;18.77;12.50;;;-1.30;26.70;;;;;;4974744;28;20201;-67
2024/01/17 02:51:26;;;;;;;19.07;11.37;;;-1.10;26.10;;;;;;4974655;28;20184;-67
2024/01/17 02:53:51;;;;;;;15.63;11.07;;;-1.00;26.80;;;;;;4974499;28;20243;-67
2024/01/17 02:56:17;;;;;;;17.73;12.30;;;-0.90;26.90;;;;;;4974636;28;20225;-67
2024/01/17 02:58:43;;;;;;;15.83;10.80;;;-0.70;27.90;;;;;;4973228;28;20182;-67
2024/01/17 03:01:08;;;;;;;15.90;11.23;;;-0.60;28.80;;;;;;4974939;28;20227;-67
2024/01/17 03:03:34;;;;;;;17.10;11.87;;;-0.40;28.90;;;;;;4975405;28;20181;-68
2024/01/17 03:06:00;;;;;;;20.10;10.87;;;-0.20;28.40;;;;;;4975523;28;20684;-67
2024/01/17 03:08:25;;;;;;;16.43;12.70;;;-0.10;27.20;;;;;;4975310;28;20413;-68
2024/01/17 03:10:51;;;;;;;14.47;10.27;;;-0.10;26.50;;;;;;4975580;28;20204;-67
2024/01/17 03:13:16;;;;;;;18.00;13.23;;;0.00;26.50;;;;;;4974865;28;20260;-67
2024/01/17 03:15:42;;;;;;;18.00;12.20;;;0.00;26.50;;;;;;4974242;28;20189;-67
2024/01/17 03:18:13;;;;;;;13.43;10.90;;;0.10;27.10;;;;;;4974351;28;20643;-67
2024/01/17 03:20:40;;;;;;;18.42;10.60;;;0.20;27.30;;;;;;4973138;28;20293;-67
2024/01/17 03:23:06;;;;;;;14.32;10.82;;;0.30;27.30;;;;;;4974190;28;20687;-68
2024/01/17 03:25:31;;;;;;;14.93;11.10;;;0.40;27.60;;;;;;4974329;28;20216;-67
2024/01/17 03:27:57;;;;;;;14.90;10.53;;;0.50;27.80;;;;;;4972997;28;20193;-67
2024/01/17 03:30:22;;;;;;;20.93;12.13;;;0.60;28.10;;;;;;4974361;28;20205;-67
2024/01/17 03:32:48;;;;;;;15.10;10.60;;;0.70;28.20;;;;;;4974085;28;20207;-67
2024/01/17 03:35:14;;;;;;;14.13;9.40;;;0.80;28.10;;;;;;4974305;28;20181;-68
2024/01/17 03:37:39;;;;;;;17.47;10.40;;;0.90;28.40;;;;;;4974588;28;20189;-68
2024/01/17 03:40:05;;;;;;;16.37;10.10;;;1.00;27.40;;;;;;4974033;28;20208;-68
2024/01/17 03:42:31;;;;;;;17.67;12.05;;;1.10;27.30;;;;;;4974087;28;20189;-69
2024/01/17 03:44:57;;;;;;;19.25;12.93;;;1.10;26.50;;;;;;4973843;28;20202;-67
2024/01/17 03:47:23;;;;;;;20.00;12.20;;;1.10;26.70;;;;;;4973715;28;20178;-67
2024/01/17 03:49:48;;;;;;;17.80;11.17;;;1.20;26.60;;;;;;4973705;28;20603;-68
2024/01/17 03:52:14;;;;;;;15.70;10.63;;;1.30;26.80;;;;;;4973768;28;20220;-68
2024/01/17 03:54:39;;;;;;;16.80;11.27;;;1.30;26.00;;;;;;4973449;28;20512;-68
2024/01/17 03:57:05;;;;;;;15.30;9.60;;;1.40;25.50;;;;;;4973561;28;20185;-68
2024/01/17 03:59:31;;;;;;;14.60;9.10;;;1.40;26.00;;;;;;4973342;28;20986;-68
2024/01/17 04:01:57;;;;;;;16.47;11.27;;;1.40;26.00;;;;;;4973525;28;20240;-68
2024/01/17 04:04:22;;;;;;;19.77;12.27;;;1.40;26.00;;;;;;4973124;28;20949;-67
2024/01/17 04:06:48;;;;;;;19.83;12.07;;;1.40;24.60;;;;;;4973343;28;20265;-67
2024/01/17 04:09:13;;;;;;;13.80;11.27;;;1.50;23.90;;;;;;4973200;28;20278;-67
2024/01/17 04:11:39;;;;;;;22.70;13.70;;;1.50;23.00;;;;;;4973388;28;20174;-68
2024/01/17 04:14:06;;;;;;;17.03;12.13;;;1.60;22.60;;;;;;4973106;28;20204;-67
2024/01/17 04:16:34;;;;;;;17.77;10.07;;;1.70;22.20;;;;;;4972756;28;20180;-67
2024/01/17 04:19:00;;;;;;;15.55;10.23;;;1.70;22.20;;;;;;4973193;28;20177;-68
2024/01/17 04:21:26;;;;;;;13.90;9.17;;;1.80;21.70;;;;;;4973125;28;20308;-67
2024/01/17 04:23:51;;;;;;;14.27;9.30;;;1.90;21.20;;;;;;4973257;28;20192;-68
2024/01/17 04:26:23;;;;;;;18.30;9.80;;;2.00;20.60;;;;;;4973284;28;20514;-67
2024/01/17 04:28:52;;;;;;;14.70;10.45;;;2.00;19.80;;;;;;4973056;28;20166;-67
2024/01/17 04:31:28;;;;;;;14.73;10.45;;;2.10;19.10;;;;;;4973241;28;20192;-67
2024/01/17 04:33:54;;;;;;;16.35;11.13;;;2.10;18.30;;;;;;4972878;28;20177;-68
2024/01/17 04:36:21;;;;;;;18.77;10.52;;;2.10;17.90;;;;;;4972034;28;20183;-67
2024/01/17 04:38:46;;;;;;;18.08;11.57;;;2.20;18.30;;;;;;4974325;28;20178;-67
2024/01/17 04:41:13;;;;;;;16.97;11.37;;;2.20;17.90;;;;;;4974466;28;20560;-67
2024/01/17 04:43:42;;;;;;;13.38;9.40;;;2.20;18.30;;;;;;4973306;28;20206;-67
2024/01/17 04:46:12;;;;;;;17.45;10.65;;;2.30;17.90;;;;;;4973029;28;20687;-68
2024/01/17 04:48:39;;;;;;;14.20;9.18;;;2.30;17.20;;;;;;4971679;28;20211;-67
2024/01/17 04:51:07;;;;;;;14.65;10.02;;;2.30;17.70;;;;;;4971685;28;20314;-67
2024/01/17 04:53:33;;;;;;;17.30;11.20;;;2.40;16.60;;;;;;4972620;28;20217;-68
2024/01/17 04:56:07;;;;;;;15.70;9.87;;;2.50;16.50;;;;;;4973027;28;20186;-68
2024/01/17 04:58:33;;;;;;;16.02;10.48;;;2.60;15.50;;;;;;4972866;28;20191;-68
2024/01/17 05:00:59;;;;;;;16.60;10.90;;;2.60;15.20;;;;;;4972768;28;20216;-68
2024/01/17 05:03:26;;;;;;;18.88;12.85;;;2.50;13.50;;;;;;4971208;28;20668;-67
2024/01/17 05:05:51;;;;;;;18.80;13.20;;;2.10;9.80;;;;;;4972476;28;20323;-68
2024/01/17 05:08:17;;;;;;;20.63;13.60;;;1.70;9.20;;;;;;4972758;28;20671;-68
2024/01/17 05:10:46;;;;;;;15.17;12.33;;;1.50;9.40;;;;;;4972437;28;20190;-68
2024/01/17 05:13:12;;;;;;;19.30;13.55;;;1.30;8.00;;;;;;4972300;28;20188;-68
2024/01/17 05:15:39;;;;;;;21.77;12.32;;;0.90;8.50;;;;;;4972585;28;20559;-68
2024/01/17 05:18:06;;;;;;;21.08;12.95;;;0.70;11.20;;;;;;4972584;28;20276;-67
2024/01/17 05:20:32;;;;;;;16.67;11.80;;;0.40;12.10;;;;;;4972563;28;20202;-67
2024/01/17 05:22:58;;;;;;;19.00;11.55;;;0.30;13.90;;;;;;4972255;28;20183;-67
2024/01/17 05:25:24;;;;;;;14.98;11.68;;;0.10;14.00;;;;;;4972477;28;20317;-67
2024/01/17 05:27:53;;;;;;;17.60;12.57;;;0.10;14.50;;;;;;4974431;28;20203;-67
2024/01/17 05:30:19;;;;;;;16.38;11.55;;;0.00;15.80;;;;;;4976217;28;20252;-68
2024/01/17 05:32:45;;;;;;;22.52;13.55;;;-0.10;16.40;;;;;;4976476;28;20180;-67
2024/01/17 05:35:11;;;;;;;17.20;13.77;;;-0.10;15.00;;;;;;4976443;28;20205;-68
2024/01/17 05:37:41;;;;;;;23.13;13.07;;;-0.20;15.20;;;;;;4976104;28;20356;-68
2024/01/17 05:40:08;;;;;;;16.65;11.73;;;-0.30;15.20;;;;;;4975997;28;20201;-68
2024/01/17 05:42:34;;;;;;;21.13;13.82;;;-0.40;16.20;;;;;;4974781;28;20605;-66
2024/01/17 05:45:01;;;;;;;20.30;13.18;;;-0.40;17.40;;;;;;4975875;28;20208;-67
2024/01/17 05:47:26;;;;;;;17.13;11.70;;;-0.30;17.70;;;;;;4975051;28;20714;-68
2024/01/17 05:49:53;;;;;;;17.03;13.20;;;-0.30;18.30;;;;;;4975882;28;20201;-68
2024/01/17 05:52:18;;;;;;;18.73;13.02;;;-0.30;17.90;;;;;;4976132;28;20258;-68
2024/01/17 05:54:44;;;;;;;14.97;12.03;;;-0.30;17.60;;;;;;4975654;28;20217;-68
2024/01/17 05:57:09;;;;;;;17.30;12.07;;;-0.30;16.80;;;;;;4975520;28;20177;-67
2024/01/17 05:59:35;;;;;;;16.50;12.23;;;-0.30;17.40;;;;;;4975390;28;20217;-67
2024/01/17 06:02:01;;;;;;;20.50;14.13;;;-0.30;18.30;;;;;;4975718;28;20285;-67
2024/01/17 06:04:26;;;;;;;18.00;12.20;;;-0.30;18.90;;;;;;4975748;28;20181;-68
2024/01/17 06:06:52;;;;;;;21.93;14.57;;;-0.30;19.60;;;;;;4975723;28;20170;-68
2024/01/17 06:09:18;;;;;;;18.87;14.93;;;-0.20;19.40;;;;;;4975514;28;20652;-68
2024/01/17 06:11:44;;;;;;;16.38;12.50;;;-0.20;20.20;;;;;;4975970;28;20928;-67
2024/01/17 06:14:09;;;;;;;20.60;13.63;;;-0.10;19.50;;;;;;4975554;28;20181;-68
2024/01/17 06:16:35;;;;;;;18.13;12.20;;;0.00;18.00;;;;;;4974997;28;20354;-68
2024/01/17 06:19:01;;;;;;;18.20;12.57;;;-0.10;19.10;;;;;;4975523;28;20194;-68
2024/01/17 06:21:26;;;;;;;17.77;12.40;;;0.10;20.20;;;;;;4975860;28;20253;-68
2024/01/17 06:23:53;;;;;;;19.63;10.77;;;0.20;22.90;;;;;;4975474;28;20269;-67
2024/01/17 06:26:19;;;;;;;12.82;10.48;;;0.40;25.40;;;;;;4975432;28;20212;-67
2024/01/17 06:28:44;;;;;;;17.88;10.18;;;0.70;29.70;;;;;;4975436;28;20170;-68
2024/01/17 06:31:10;;;;;;;15.63;10.53;;;1.00;31.30;;;;;;4975645;28;20531;-68
2024/01/17 06:33:36;;;;;;;17.20;10.50;;;1.20;32.50;;;;;;4975586;28;20169;-68
2024/01/17 06:36:02;;;;;;;13.93;10.37;;;1.50;33.10;;;;;;4975713;28;20205;-68
2024/01/17 06:38:27;;;;;;;13.57;9.37;;;1.70;33.40;;;;;;4974084;28;20179;-68
2024/01/17 06:40:53;;;;;;;15.20;10.07;;;1.90;31.40;;;;;;4975231;28;20568;-68
2024/01/17 06:43:20;;;;;;;14.57;9.83;;;2.00;30.10;;;;;;4973708;28;20186;-68
2024/01/17 06:45:46;;;;;;;15.30;10.10;;;2.10;29.30;;;;;;4974238;28;20212;-68
2024/01/17 06:48:11;;;;;;;10.37;7.23;;;2.30;28.60;;;;;;4975030;28;20263;-68
2024/01/17 06:50:37;;;;;;;15.60;9.17;;;2.30;26.60;;;;;;4975351;28;20734;-67
2024/01/17 06:53:03;;;;;;;10.93;6.80;;;2.40;26.30;;;;;;4974958;28;20179;-67
2024/01/17 06:55:28;;;;;;;9.87;6.97;;;2.50;25.40;;;;;;4974993;28;20656;-67
2024/01/17 06:57:54;;;;;;;8.53;7.63;;;2.60;25.80;;;;;;4975089;28;20229;-67
2024/01/17 07:00:20;;;;;;;12.53;7.80;;;2.60;25.20;;;;;;4988421;23;20234;-70
2024/01/17 07:02:45;;;;;;;11.90;7.33;;;2.60;25.40;;;;;;4956083;29;20655;-71
2024/01/17 07:05:11;;;;;;;11.30;7.17;;;2.70;26.10;;;;;;4955856;29;20204;-70
2024/01/17 07:07:39;;;;;;;9.20;7.10;;;2.70;25.50;;;;;;4956013;29;20644;-68
2024/01/17 07:10:05;;;;;;;9.57;6.53;;;2.80;24.60;;;;;;4955727;28;20275;-68
2024/01/17 07:12:31;;;;;;;10.32;7.07;;;2.80;23.80;;;;;;4955638;28;20181;-68
2024/01/17 07:14:56;;;;;;;11.40;7.13;;;2.90;24.10;;;;;;4953898;29;20180;-68
2024/01/17 07:17:22;;;;;;;10.60;5.90;;;3.00;24.80;;;;;;4954120;29;20555;-69
2024/01/17 07:19:48;;;;;;;10.17;5.40;;;3.00;24.20;;;;;;4955031;28;20565;-69
2024/01/17 07:22:13;;;;;;;8.50;5.60;;;3.10;23.20;;;;;;4955373;29;20260;-69
2024/01/17 07:24:39;;;;;;;8.00;5.10;;;3.10;23.70;;;;;;4955192;29;20187;-69
2024/01/17 07:27:05;;;;;;;8.90;4.77;;;3.20;23.40;;;;;;4955711;28;20178;-69
2024/01/17 07:29:30;;;;;;;7.50;5.40;;;3.20;23.40;;;;;;4955949;28;20196;-69
2024/01/17 07:31:56;;;;;;;7.50;5.60;;;3.20;24.00;;;;;;4956115;29;20238;-69
2024/01/17 07:34:22;;;;;;;6.20;4.37;;;3.20;24.80;;;;;;4955757;28;20213;-69
2024/01/17 07:36:48;;;;;;;7.28;5.50;;;3.20;24.80;;;;;;4957098;29;20180;-68
2024/01/17 07:39:14;;;;;;;8.00;5.07;;;3.30;25.30;;;;;;4956901;29;20283;-68
2024/01/17 07:41:40;;;;;;;7.20;4.55;;;3.30;25.90;;;;;;4954416;28;20665;-70
2024/01/17 07:44:06;;;;;;;9.70;6.10;;;3.20;26.30;;;;;;4953232;29;20188;-68
2024/01/17 07:46:32;;;;;;;10.93;5.10;;;3.30;26.90;;;;;;4954563;28;20460;-68
2024/01/17 07:48:58;;;;;;;6.30;3.87;;;3.30;27.30;;;;;;4954615;28;20419;-68
2024/01/17 07:51:23;;;;;;;6.00;3.60;;;3.30;27.30;;;;;;4952702;28;20456;-68
2024/01/17 07:53:49;;;;;;;4.97;3.33;;;3.30;28.10;;;;;;4954414;28;20184;-69
2024/01/17 07:56:15;;;;;;;5.70;3.80;;;3.40;28.30;;;;;;4954727;28;20192;-69
2024/01/17 07:58:40;;;;;;;16.03;3.90;;;3.50;28.00;;;;;;4954582;28;20264;-69
2024/01/17 08:01:06;;;;;;;5.37;2.63;;;3.50;27.60;;;;;;4954325;28;20725;-68
2024/01/17 08:03:32;;;;;;;6.50;3.47;;;3.50;28.70;;;;;;4954583;29;20174;-68
2024/01/17 08:05:58;;;;;;;4.40;3.10;;;3.60;28.50;;;;;;4954734;29;20208;-68
2024/01/17 08:08:23;;;;;;;5.33;2.20;;;3.60;27.80;;;;;;4954446;28;20264;-68
2024/01/17 08:10:49;;;;;;;4.53;2.67;;;3.70;27.50;;;;;;4954602;28;20205;-68
2024/01/17 08:13:14;;;;;;;4.93;2.67;;;3.70;27.50;;;;;;4953180;29;20257;-70
2024/01/17 08:15:41;;;;;;;3.80;2.63;;;3.70;27.50;;;;;;4954354;29;20257;-68
2024/01/17 08:18:08;;;;;;;3.55;2.10;;;3.70;27.50;;;;;;4954128;29;20270;-69
2024/01/17 08:20:34;;;;;;;3.83;2.30;;;3.70;27.00;;;;;;4954304;28;20561;-69
2024/01/17 08:22:59;;;;;;;2.33;1.57;;;3.80;26.50;;;;;;4954056;29;20487;-69
2024/01/17 08:25:26;;;;;;;2.67;1.60;;;3.80;26.60;;;;;;4952893;29;20618;-68
2024/01/17 08:27:54;;;;;;;7.07;3.17;;;3.80;25.80;;;;;;4952938;29;20568;-69
2024/01/17 08:30:19;;;;;;;3.23;2.80;;;3.80;25.10;;;;;;4953726;28;20937;-68
2024/01/17 08:32:45;;;;;;;2.90;2.10;;;3.80;25.40;;;;;;4954133;29;20433;-69
2024/01/17 08:35:12;;;;;;;3.37;2.17;;;3.80;25.20;;;;;;4953707;29;20287;-69
2024/01/17 08:37:37;;;;;;;2.63;1.53;;;3.90;24.60;;;;;;4953980;29;20569;-68
2024/01/17 08:40:04;;;;;;;9.53;2.40;;;3.90;24.90;;;;;;4954205;28;20444;-68
2024/01/17 08:42:29;;;;;;;6.03;2.60;;;3.90;25.00;;;;;;4952967;29;20196;-69
2024/01/17 08:44:55;;;;;;;7.60;2.47;;;3.90;24.90;;;;;;4953848;28;20826;-68
2024/01/17 08:47:20;;;;;;;2.93;1.77;;;;;;;;;;4953954;29;20186;-68
2024/01/17 08:49:46;;;;;;;2.57;1.40;;;3.90;24.70;;;;;;4953850;28;20576;-68
2024/01/17 08:52:12;;;;;;;4.30;1.77;;;3.90;26.40;;;;;;4954111;29;20478;-68
2024/01/17 08:54:37;;;;;;;2.60;1.33;;;3.90;26.30;;;;;;4953519;29;20209;-68
2024/01/17 08:57:03;;;;;;;2.00;1.20;;;3.90;26.70;;;;;;4954444;29;20416;-68
2024/01/17 08:59:30;;;;;;;2.10;1.13;;;3.90;27.10;;;;;;4953465;28;20241;-68
2024/01/17 09:01:56;;;;;;;2.43;1.23;;;4.00;26.60;;;;;;4956100;28;20428;-68
2024/01/17 09:04:23;;;;;;;2.70;1.83;;;4.00;26.60;;;;;;4957781;29;20912;-68
2024/01/17 09:06:49;;;;;;;3.80;1.50;;;4.10;26.00;;;;;;4957908;29;20409;-68
2024/01/17 09:09:15;;;;;;;1.80;0.90;;;4.00;27.30;;;;;;4958154;28;20445;-68
2024/01/17 09:11:41;;;;;;;2.00;0.90;;;4.10;27.30;;;;;;4958488;29;20936;-69
2024/01/17 09:14:07;;;;;;;2.90;1.87;;;4.20;27.30;;;;;;4956329;29;20185;-69
2024/01/17 09:16:33;;;;;;;7.27;2.23;;;4.20;27.80;;;;;;4957812;29;20181;-69
2024/01/17 09:18:59;;;;;;;2.43;1.60;;;4.20;27.00;;;;;;4957301;29;20776;-69
2024/01/17 09:21:25;;;;;;;4.27;1.83;;;4.30;27.90;;;;;;4957709;28;20436;-68
2024/01/17 09:23:51;;;;;;;7.53;2.90;;;4.30;27.40;;;;;;4957966;29;20181;-69
2024/01/17 09:26:16;;;;;;;3.70;1.50;;;4.40;27.50;;;;;;4957531;28;21019;-69
2024/01/17 09:28:42;;;;;;;2.83;1.30;;;4.50;26.60;;;;;;4957573;29;20209;-69
2024/01/17 09:31:08;;;;;;;1.90;1.23;;;4.40;26.70;;;;;;4957129;28;20190;-69
2024/01/17 09:33:35;;;;;;;2.03;1.33;;;4.50;26.60;;;;;;4957110;29;20189;-69
2024/01/17 09:36:01;;;;;;;1.73;0.93;;;4.60;26.60;;;;;;4957489;28;20170;-69
2024/01/17 09:38:26;;;;;;;2.20;1.10;;;4.60;25.70;;;;;;4956843;28;20423;-70
2024/01/17 09:40:52;;;;;;;2.10;1.03;;;4.70;25.40;;;;;;4957258;28;20248;-70
2024/01/17 09:43:18;;;;;;;2.23;1.37;;;4.70;25.20;;;;;;4956978;28;20688;-69
2024/01/17 09:45:44;;;;;;;2.10;1.27;;;4.70;26.10;;;;;;4957113;29;20666;-69
2024/01/17 09:48:14;;;;;;;1.87;1.20;;;4.70;26.90;;;;;;4957014;29;20692;-69
2024/01/17 09:50:40;;;;;;;2.27;1.20;;;4.70;27.30;;;;;;4956736;28;20441;-69
2024/01/17 09:53:11;;;;;;;2.70;1.20;;;4.80;27.20;;;;;;4956761;28;20496;-69
2024/01/17 09:55:38;;;;;;;2.87;1.00;;;4.80;27.90;;;;;;4955652;29;20186;-69
2024/01/17 09:58:05;;;;;;;1.87;0.83;;;4.90;26.50;;;;;;4956723;28;20456;-70
2024/01/17 10:00:34;;;;;;;2.63;1.00;;;4.90;26.80;;;;;;4956894;28;20460;-69
2024/01/17 10:03:02;;;;;;;2.77;1.73;;;5.00;26.50;;;;;;4956503;29;20444;-68
2024/01/17 10:05:30;;;;;;;3.33;1.80;;;5.00;27.00;;;;;;4956728;29;20472;-69
2024/01/17 10:07:58;;;;;;;2.50;1.63;;;5.10;27.50;;;;;;4956640;28;20418;-69
2024/01/17 10:10:24;;;;;;;2.47;1.50;;;5.20;27.00;;;;;;4956375;28;20433;-70
2024/01/17 10:12:51;;;;;;;2.80;1.37;;;5.20;24.70;;;;;;4955631;28;20778;-68
2024/01/17 10:15:17;;;;;;;2.60;1.27;;;5.20;24.70;;;;;;4956446;28;20419;-68
2024/01/17 10:17:43;;;;;;;2.00;1.20;;;5.30;25.90;;;;;;4956466;28;20409;-68
2024/01/17 10:20:09;;;;;;;2.33;1.27;;;5.30;25.70;;;;;;4956091;28;20452;-69
2024/01/17 10:22:35;;;;;;;2.30;1.30;;;5.40;24.50;;;;;;4955986;29;20612;-69
2024/01/17 10:25:02;;;;;;;2.90;1.77;;;5.40;24.50;;;;;;4956011;28;20560;-69
2024/01/17 10:27:28;;;;;;;2.27;1.47;;;5.50;23.80;;;;;;4956233;29;20257;-69
2024/01/17 10:29:54;;;;;;;2.13;1.10;;;;;;;;;;4954756;28;20504;-69
2024/01/17 10:32:21;;;;;;;2.77;1.60;;;5.50;24.10;;;;;;4956333;28;20803;-70
2024/01/17 10:34:47;;;;;;;2.67;1.60;;;5.60;24.70;;;;;;4956170;29;20509;-69
2024/01/17 10:37:14;;;;;;;3.60;2.13;;;5.70;23.60;;;;;;4955402;28;20458;-69
2024/01/17 10:39:40;;;;;;;5.20;2.53;;;5.80;23.00;;;;;;4956067;28;20217;-69
2024/01/17 10:42:17;;;;;;;3.80;2.17;;;5.80;22.40;;;;;;4956131;28;20422;-70
2024/01/17 10:44:42;;;;;;;3.83;2.50;;;5.90;21.30;;;;;;4955989;28;20470;-69
2024/01/17 10:47:08;;;;;;;3.33;2.47;;;5.90;21.00;;;;;;4956046;28;20782;-70
2024/01/17 10:49:33;;;;;;;3.40;1.73;;;6.00;20.80;;;;;;4955745;28;20175;-69
2024/01/17 10:52:02;;;;;;;2.00;1.27;;;6.00;20.80;;;;;;4954580;29;20217;-69
2024/01/17 10:54:46;;;;;;;3.77;1.90;;;5.80;20.70;;;;;;4955559;29;20238;-70
2024/01/17 10:57:14;;;;;;;2.90;2.00;;;5.90;21.00;;;;;;4955514;29;20423;-69
2024/01/17 10:59:49;;;;;;;3.03;1.30;;;5.90;21.80;;;;;;4955376;28;20442;-69
2024/01/17 11:02:22;;;;;;;4.03;1.70;;;5.90;22.10;;;;;;4955635;28;20417;-70
2024/01/17 11:05:07;;;;;;;2.20;1.30;;;5.90;22.20;;;;;;4955111;29;20493;-70
2024/01/17 11:07:35;;;;;;;2.50;1.60;;;5.90;22.40;;;;;;4956250;28;20466;-69
2024/01/17 11:10:05;;;;;;;4.37;1.30;;;5.90;22.30;;;;;;4955288;28;20436;-69
2024/01/17 11:12:38;;;;;;;2.47;1.43;;;5.90;23.30;;;;;;4954586;29;20426;-69
2024/01/17 11:15:05;;;;;;;2.27;1.30;;;5.90;23.80;;;;;;4955569;28;20948;-69
2024/01/17 11:17:39;;;;;;;1.93;1.00;;;5.90;24.00;;;;;;4955266;29;20753;-70
2024/01/17 11:20:07;;;;;;;2.93;1.40;;;6.10;23.70;;;;;;4955461;28;20836;-69
2024/01/17 11:22:37;;;;;;;2.33;1.13;;;6.20;23.80;;;;;;4955091;28;20410;-69
2024/01/17 11:25:29;;;;;;;3.57;1.93;;;6.30;22.90;;;;;;4954188;28;20463;-70
2024/01/17 11:28:10;;;;;;;2.10;1.30;;;6.40;21.30;;;;;;4955334;29;20940;-70
2024/01/17 11:31:16;;;;;;;5.93;1.87;;;6.40;22.10;;;;;;4953850;28;20452;-70
2024/01/17 11:33:43;;;;;;;1.70;0.63;;;6.40;21.80;;;;;;4954824;29;20411;-70
2024/01/17 11:36:45;;;;;;;2.87;1.87;;;6.50;21.10;;;;;;4969956;29;20530;-69
2024/01/17 11:39:18;;;;;;;2.57;1.10;;;6.60;23.40;;;;;;4974981;28;20407;-69
2024/01/17 11:41:49;;;;;;;2.07;1.10;;;6.80;21.00;;;;;;4971357;28;20479;-69
2024/01/17 11:44:17;;;;;;;2.50;1.30;;;7.00;21.20;;;;;;4965071;28;20572;-69
2024/01/17 11:46:47;;;;;;;2.63;1.90;;;;;;;;;;4956732;28;20463;-70
2024/01/17 11:49:17;;;;;;;2.53;1.53;;;7.30;22.00;;;;;;4956138;28;21082;-70
2024/01/17 11:51:44;;;;;;;3.60;2.07;;;;;;;;;;4954443;29;20427;-70
2024/01/17 11:54:12;;;;;;;3.27;2.03;;;7.30;17.90;;;;;;4956472;28;20428;-69
2024/01/17 11:56:38;;;;;;;3.20;1.53;;;7.40;19.10;;;;;;4956086;29;20419;-69
2024/01/17 11:59:09;;;;;;;6.83;2.97;;;7.50;18.70;;;;;;4955674;29;20425;-69
2024/01/17 12:01:34;;;;;;;4.60;1.67;;;7.70;17.60;;;;;;4955926;28;20224;-69
2024/01/17 12:04:09;;;;;;;2.53;1.40;;;7.90;16.30;;;;;;4955055;29;20433;-69
2024/01/17 12:06:36;;;;;;;1.93;1.00;;;8.00;15.60;;;;;;4954892;28;20204;-69
2024/01/17 12:09:03;;;;;;;2.00;1.10;;;8.00;16.10;;;;;;4955135;28;20429;-69
2024/01/17 12:11:28;;;;;;;2.50;1.20;;;7.90;15.00;;;;;;4954732;28;20448;-69
2024/01/17 12:13:55;;;;;;;2.70;1.07;;;7.90;16.60;;;;;;4954266;29;20425;-69
2024/01/17 12:16:23;;;;;;;2.57;1.27;;;7.80;15.90;;;;;;4954332;29;20176;-69
2024/01/17 12:18:57;;;;;;;2.73;1.10;;;7.70;16.40;;;;;;4954197;28;20431;-69
2024/01/17 12:21:22;;;;;;;2.10;1.10;;;7.60;17.30;;;;;;4954275;28;20448;-69
2024/01/17 12:23:49;;;;;;;2.80;1.40;;;7.60;18.10;;;;;;4954343;28;20931;-69
2024/01/17 12:26:15;;;;;;;3.17;2.47;;;7.70;18.20;;;;;;4954387;29;20639;-69
2024/01/17 12:28:40;;;;;;;3.50;2.27;;;7.80;17.70;;;;;;4954639;29;20517;-69
2024/01/17 12:31:07;;;;;;;2.33;1.53;;;7.80;18.00;;;;;;4954392;28;20560;-69
2024/01/17 12:33:35;;;;;;;2.97;1.50;;;7.80;16.30;;;;;;4954106;29;20269;-69
2024/01/17 12:36:02;;;;;;;2.23;1.23;;;7.60;16.60;;;;;;4954018;28;20480;-69
2024/01/17 12:38:28;;;;;;;2.47;1.27;;;7.60;17.50;;;;;;4954211;28;20417;-69
2024/01/17 12:40:55;;;;;;;2.40;1.20;;;7.60;17.50;;;;;;4954027;28;20444;-69
2024/01/17 12:43:21;;;;;;;4.30;2.10;;;7.70;18.20;;;;;;4953534;29;20431;-69